Time;durP1;ratioP1;P1;durP2;ratioP2;P2;SDS_P1;SDS_P2;PMS_P1;PMS_P2;Temp;Humidity;BMP_temperature;BMP_pressure;BME280_temperature;BME280_humidity;BME280_pressure;Samples;Min_cycle;Max_cycle;Signal;HPM_P1;HPM_P2
2022/12/12 00:00:12;;;;;;;11.30;7.70;;;;;;;18.50;47.70;99745.66;5073240;28;20178;-61
2022/12/12 00:02:39;;;;;;;18.27;7.73;;;;;;;18.53;47.50;99750.63;5066955;28;20183;-61
2022/12/12 00:05:06;;;;;;;13.93;7.80;;;;;;;18.54;47.46;99746.53;5072429;28;20514;-61
2022/12/12 00:07:31;;;;;;;10.77;7.07;;;;;;;18.50;48.05;99745.66;5064495;28;20469;-61
2022/12/12 00:09:57;;;;;;;12.37;7.17;;;;;;;18.51;47.73;99753.03;5053148;28;20441;-60
2022/12/12 00:12:22;;;;;;;11.90;6.90;;;;;;;18.50;47.75;99744.84;5053064;28;20261;-61
2022/12/12 00:14:47;;;;;;;11.67;7.17;;;;;;;18.48;48.14;99748.13;5071717;28;20191;-61
2022/12/12 00:17:13;;;;;;;15.40;8.03;;;;;;;18.43;47.97;99744.78;5072897;28;20190;-61
2022/12/12 00:19:38;;;;;;;14.60;7.10;;;;;;;18.50;48.31;99744.84;5062485;28;20192;-61
2022/12/12 00:22:04;;;;;;;13.90;7.83;;;;;;;18.52;48.02;99748.94;5054357;28;20179;-61
2022/12/12 00:24:29;;;;;;;11.77;7.07;;;;;;;18.53;48.01;99749.78;5070914;28;20210;-60
2022/12/12 00:26:55;;;;;;;14.60;7.30;;;;;;;18.51;48.01;99747.31;5066999;28;20187;-60
2022/12/12 00:29:20;;;;;;;11.67;7.40;;;;;;;18.52;48.27;99748.94;5055372;28;20171;-61
2022/12/12 00:31:45;;;;;;;13.23;6.90;;;;;;;18.51;48.25;99744.44;5062020;28;20261;-60
2022/12/12 00:34:11;;;;;;;12.50;6.50;;;;;;;18.51;48.27;99746.50;5051904;28;20164;-60
2022/12/12 00:36:36;;;;;;;14.47;6.40;;;;;;;18.49;48.37;99744.03;5055490;28;20183;-61
2022/12/12 00:39:02;;;;;;;8.43;5.60;;;;;;;18.46;48.15;99739.09;5056394;28;20188;-60
2022/12/12 00:41:27;;;;;;;11.90;6.97;;;;;;;18.42;48.50;99755.38;5073108;28;20164;-61
2022/12/12 00:43:53;;;;;;;9.40;6.47;;;;;;;18.46;48.42;99750.53;5072972;28;20167;-61
2022/12/12 00:46:20;;;;;;;9.60;6.40;;;;;;;18.50;48.25;99757.09;5057659;28;20510;-60
2022/12/12 00:48:45;;;;;;;13.30;6.67;;;;;;;18.51;48.33;99761.59;5018609;28;20167;-61
2022/12/12 00:51:14;;;;;;;13.00;7.17;;;;;;;18.51;48.49;99763.66;5052737;28;20769;-61
2022/12/12 00:53:39;;;;;;;9.70;6.37;;;;;;;18.49;48.21;99764.03;5054182;28;20206;-60
2022/12/12 00:56:05;;;;;;;10.60;6.63;;;;;;;18.48;48.56;99755.84;5071278;28;20900;-60
2022/12/12 00:58:31;;;;;;;13.13;6.77;;;;;;;18.46;48.58;99761.97;5052190;28;20226;-60
2022/12/12 01:01:04;;;;;;;8.43;5.67;;;;;;;18.41;48.72;99764.38;5060233;28;20649;-61
2022/12/12 01:03:37;;;;;;;10.93;7.30;;;;;;;18.40;48.71;99760.69;5059159;28;20257;-61
2022/12/12 01:06:03;;;;;;;10.60;5.90;;;;;;;18.45;49.04;99765.22;5067276;28;20545;-61
2022/12/12 01:08:28;;;;;;;13.07;6.73;;;;;;;18.45;48.83;99765.22;5052589;28;20970;-61
2022/12/12 01:10:54;;;;;;;12.90;5.40;;;;;;;18.42;48.66;99766.81;5052621;28;20180;-62
2022/12/12 01:13:19;;;;;;;8.77;5.90;;;;;;;18.45;48.64;99766.03;5054607;28;20540;-62
2022/12/12 01:15:45;;;;;;;9.90;6.67;;;;;;;18.46;48.64;99764.00;5052212;28;20176;-62
2022/12/12 01:18:10;;;;;;;11.00;6.53;;;;;;;18.41;48.72;99765.19;5054679;28;20192;-62
2022/12/12 01:20:36;;;;;;;9.90;5.87;;;;;;;18.43;48.61;99768.47;5051986;28;20172;-62
2022/12/12 01:23:01;;;;;;;11.00;6.47;;;;;;;18.42;48.78;99777.44;5052658;28;20164;-62
2022/12/12 01:25:27;;;;;;;9.70;6.10;;;;;;;18.47;48.60;99777.09;5052362;28;20238;-61
2022/12/12 01:27:52;;;;;;;12.00;6.17;;;;;;;18.49;48.74;99784.06;5062777;28;20195;-62
2022/12/12 01:30:19;;;;;;;9.33;6.47;;;;;;;18.39;48.86;99778.22;5052077;28;20175;-62
2022/12/12 01:32:44;;;;;;;10.93;6.10;;;;;;;18.38;49.16;99788.84;5054464;28;20260;-62
2022/12/12 01:35:10;;;;;;;11.97;6.20;;;;;;;18.42;48.97;99791.72;5034338;28;20422;-62
2022/12/12 01:37:36;;;;;;;9.50;5.50;;;;;;;18.42;48.80;99794.59;5052424;28;20181;-62
2022/12/12 01:40:04;;;;;;;10.60;6.40;;;;;;;18.42;48.98;99786.81;5061846;28;20205;-62
2022/12/12 01:42:29;;;;;;;11.47;6.00;;;;;;;18.43;48.98;99791.34;5064902;28;20445;-62
2022/12/12 01:44:55;;;;;;;9.40;5.90;;;;;;;18.40;48.99;99794.97;5051475;28;20411;-62
2022/12/12 01:47:21;;;;;;;9.90;5.73;;;;;;;18.44;48.70;99795.84;5052278;28;20164;-62
2022/12/12 01:49:58;;;;;;;8.30;5.30;;;;;;;18.41;49.12;99796.63;5070807;28;20190;-62
2022/12/12 01:52:29;;;;;;;11.43;6.43;;;;;;;18.42;49.08;99801.09;5054067;28;20608;-62
2022/12/12 01:54:59;;;;;;;9.90;6.30;;;;;;;18.42;48.86;99803.16;5054117;28;20463;-62
2022/12/12 01:57:37;;;;;;;7.53;5.23;;;;;;;18.39;49.20;99801.91;5047158;28;20430;-61
2022/12/12 02:00:36;;;;;;;10.10;6.50;;;;;;;18.42;49.22;99806.03;5051606;28;20410;-62
2022/12/12 02:03:02;;;;;;;8.40;5.80;;;;;;;18.37;49.04;99810.03;5056679;28;20437;-62
2022/12/12 02:05:42;;;;;;;9.03;5.70;;;;;;;18.33;48.98;99806.34;5071425;28;20492;-62
2022/12/12 02:08:07;;;;;;;7.83;5.07;;;;;;;18.36;49.15;99802.69;5053333;28;20241;-62
2022/12/12 02:10:33;;;;;;;9.90;4.93;;;;;;;18.37;49.31;99800.66;5066191;28;20433;-62
2022/12/12 02:13:04;;;;;;;11.97;5.97;;;;;;;18.38;49.20;99800.28;5063254;28;20210;-62
2022/12/12 02:15:41;;;;;;;9.57;5.13;;;;;;;18.36;49.39;99802.69;5071405;28;20209;-62
2022/12/12 02:18:18;;;;;;;7.33;5.80;;;;;;;18.41;49.19;99795.81;5052605;28;20444;-62
2022/12/12 02:20:46;;;;;;;7.50;5.50;;;;;;;18.34;49.41;99802.28;5053785;28;20421;-61
2022/12/12 02:23:21;;;;;;;11.77;5.67;;;;;;;18.36;49.26;99802.69;5049805;28;20421;-62
2022/12/12 02:26:04;;;;;;;8.77;5.30;;;;;;;18.28;49.36;99798.09;5070981;28;20857;-62
2022/12/12 02:28:38;;;;;;;8.50;5.50;;;;;;;18.31;49.42;99791.56;5069066;28;21122;-62
2022/12/12 02:31:14;;;;;;;8.53;5.47;;;;;;;18.38;49.32;99800.28;5052345;28;20422;-62
2022/12/12 02:33:51;;;;;;;8.53;5.37;;;;;;;18.38;48.90;99808.84;5027316;28;20916;-62
2022/12/12 02:36:33;;;;;;;8.43;4.90;;;;;;;18.38;49.18;99811.72;5051054;28;20936;-62
2022/12/12 02:38:58;;;;;;;7.37;5.50;;;;;;;18.34;49.37;99799.41;5033301;28;20417;-62
2022/12/12 02:41:39;;;;;;;7.67;5.27;;;;;;;18.34;49.53;99805.13;5051113;28;20402;-62
2022/12/12 02:44:07;;;;;;;9.87;5.53;;;;;;;18.39;49.16;99804.78;5050526;28;20285;-62
2022/12/12 02:47:18;;;;;;;10.00;5.37;;;;;;;18.39;49.19;99804.78;5050503;28;20985;-62
2022/12/12 02:50:07;;;;;;;10.30;5.20;;;;;;;18.40;49.30;99811.28;5043866;28;20441;-62
2022/12/12 02:52:32;;;;;;;6.97;5.43;;;;;;;18.42;49.16;99806.81;5036997;28;20924;-61
2022/12/12 02:54:58;;;;;;;9.97;5.50;;;;;;;18.36;49.15;99814.13;5070865;28;20414;-62
2022/12/12 02:57:24;;;;;;;6.77;4.67;;;;;;;18.41;49.28;99812.97;5071852;28;20182;-62
2022/12/12 03:00:13;;;;;;;7.40;5.47;;;;;;;18.34;49.45;99810.84;5065630;28;20241;-62
2022/12/12 03:02:46;;;;;;;7.23;5.17;;;;;;;18.36;49.45;99811.25;5061861;28;20456;-62
2022/12/12 03:08:07;;;;;;;6.07;4.70;;;;;;;18.33;49.52;99808.38;5075038;28;20459;-62
2022/12/12 03:10:55;;;;;;;8.30;5.43;;;;;;;18.31;49.57;99805.88;5066978;28;20476;-62
2022/12/12 03:13:26;;;;;;;8.83;5.53;;;;;;;18.34;49.40;99807.16;5036948;28;20532;-62
2022/12/12 03:16:08;;;;;;;8.67;5.60;;;;;;;18.35;49.54;99811.66;5056835;28;20520;-61
2022/12/12 03:18:42;;;;;;;6.70;5.13;;;;;;;18.30;49.31;99812.78;5037452;28;20436;-62
2022/12/12 03:21:13;;;;;;;8.07;5.20;;;;;;;18.28;49.22;99805.84;5036579;28;20418;-62
2022/12/12 03:23:40;;;;;;;6.63;4.80;;;;;;;18.27;49.57;99807.84;5054888;28;20512;-62
2022/12/12 03:26:18;;;;;;;9.40;5.47;;;;;;;18.33;49.61;99805.50;5039986;28;20433;-62
2022/12/12 03:28:57;;;;;;;8.40;5.47;;;;;;;18.29;49.32;99802.59;5045850;28;20437;-62
2022/12/12 03:31:24;;;;;;;6.77;5.30;;;;;;;18.24;49.54;99800.09;5036477;28;20406;-62
2022/12/12 03:33:58;;;;;;;7.20;5.47;;;;;;;18.22;49.70;99802.50;5029982;28;20456;-62
2022/12/12 03:36:28;;;;;;;9.07;5.50;;;;;;;18.22;49.63;99799.63;5056530;28;20492;-62
2022/12/12 03:38:56;;;;;;;6.67;4.43;;;;;;;18.28;49.65;99797.25;5070204;28;20836;-62
2022/12/12 03:41:27;;;;;;;6.07;4.50;;;;;;;18.29;49.47;99793.19;5036487;28;20414;-61
2022/12/12 03:44:07;;;;;;;7.43;5.10;;;;;;;18.26;49.52;99794.78;5037048;28;20451;-61
2022/12/12 03:46:37;;;;;;;7.03;4.97;;;;;;;18.28;49.53;99806.66;5038042;28;20437;-62
2022/12/12 03:49:17;;;;;;;6.87;4.90;;;;;;;18.27;49.17;99796.41;5038786;28;20492;-62
2022/12/12 03:51:46;;;;;;;7.83;4.53;;;;;;;18.32;49.45;99796.09;5036010;28;21008;-62
2022/12/12 03:54:22;;;;;;;7.03;4.67;;;;;;;18.29;49.56;99802.59;5036442;28;20407;-62
2022/12/12 03:57:39;;;;;;;7.47;4.80;;;;;;;18.33;49.39;99803.50;5064039;28;20803;-62
2022/12/12 04:00:10;;;;;;;6.50;4.77;;;;;;;18.33;49.36;99806.34;5050636;28;20465;-62
2022/12/12 04:02:38;;;;;;;6.87;5.20;;;;;;;18.30;49.50;99809.09;5039309;28;20404;-62
2022/12/12 04:05:14;;;;;;;6.10;4.67;;;;;;;18.30;49.49;99814.81;5072961;28;20453;-62
2022/12/12 04:07:48;;;;;;;8.60;5.30;;;;;;;18.25;49.55;99807.44;5070538;28;21022;-62
2022/12/12 04:13:14;;;;;;;6.60;4.37;;;;;;;18.29;49.51;99810.31;5040455;28;20468;-62
2022/12/12 04:15:52;;;;;;;5.83;4.70;;;;;;;18.30;49.50;99811.97;5055375;28;20487;-62
2022/12/12 04:18:30;;;;;;;7.50;5.33;;;;;;;18.26;49.40;99811.94;5054099;28;20846;-62
2022/12/12 04:24:06;;;;;;;6.77;4.90;;;;;;;18.23;49.48;99812.72;5073732;28;20976;-62
2022/12/12 04:26:40;;;;;;;10.07;5.20;;;;;;;18.29;49.32;99816.03;5054280;28;20443;-62
2022/12/12 04:29:14;;;;;;;8.03;5.10;;;;;;;18.29;49.54;99816.88;5054333;28;20428;-62
2022/12/12 04:31:49;;;;;;;8.67;4.53;;;;;;;18.29;49.67;99828.31;5073105;28;20417;-62
2022/12/12 04:34:24;;;;;;;8.70;4.70;;;;;;;18.26;49.33;99820.50;5052405;28;20437;-62
2022/12/12 04:36:50;;;;;;;8.77;4.43;;;;;;;18.28;49.42;99823.81;5055087;28;20413;-62
2022/12/12 04:39:15;;;;;;;7.40;4.80;;;;;;;18.34;49.20;99827.16;5044708;28;20441;-62
2022/12/12 04:41:41;;;;;;;7.00;4.97;;;;;;;18.30;49.31;99829.09;5050255;28;20619;-62
2022/12/12 04:44:08;;;;;;;6.70;4.20;;;;;;;18.34;49.60;99833.69;5070842;28;20163;-62
2022/12/12 04:46:33;;;;;;;6.93;4.87;;;;;;;18.32;49.76;99832.41;5054085;28;20181;-62
2022/12/12 04:49:03;;;;;;;7.00;4.60;;;;;;;18.32;49.56;99836.09;5053341;28;20434;-60
2022/12/12 04:51:33;;;;;;;6.07;4.43;;;;;;;18.26;49.57;99837.66;5071690;28;20178;-61
2022/12/12 04:54:06;;;;;;;6.23;4.93;;;;;;;18.34;49.84;99836.56;5041742;28;20460;-61
2022/12/12 04:56:32;;;;;;;7.83;4.83;;;;;;;18.29;49.49;99834.03;5044863;28;20429;-61
2022/12/12 04:58:57;;;;;;;7.70;5.20;;;;;;;18.27;49.28;99836.44;5054315;28;20453;-61
2022/12/12 05:01:35;;;;;;;6.40;4.70;;;;;;;18.31;49.74;99833.63;5072540;28;20171;-61
2022/12/12 05:04:05;;;;;;;6.70;4.67;;;;;;;18.28;49.36;99840.94;5061356;28;20236;-61
2022/12/12 05:06:34;;;;;;;6.13;4.47;;;;;;;18.29;49.59;99834.03;5054241;28;20764;-61
2022/12/12 05:08:59;;;;;;;6.10;4.67;;;;;;;18.27;49.52;99838.47;5053968;28;20471;-61
2022/12/12 05:11:25;;;;;;;8.57;4.90;;;;;;;18.23;49.73;99843.31;5072057;28;20405;-61
2022/12/12 05:13:50;;;;;;;7.00;4.83;;;;;;;18.27;49.42;99839.28;5068565;28;20200;-61
2022/12/12 05:16:31;;;;;;;5.10;3.83;;;;;;;18.24;49.81;99836.38;5072079;28;20183;-61
2022/12/12 05:18:57;;;;;;;7.10;4.50;;;;;;;18.22;49.51;99830.25;5054850;28;20183;-61
2022/12/12 05:21:23;;;;;;;7.03;4.57;;;;;;;18.28;49.65;99828.69;5054960;28;20533;-61
2022/12/12 05:23:48;;;;;;;5.77;4.23;;;;;;;18.29;49.44;99836.88;5051937;28;20752;-61
2022/12/12 05:26:19;;;;;;;7.30;5.17;;;;;;;18.29;49.50;99839.75;5059177;28;20179;-61
2022/12/12 05:28:45;;;;;;;7.90;4.50;;;;;;;18.28;49.78;99840.94;5052806;28;20225;-61
2022/12/12 05:31:10;;;;;;;6.23;4.37;;;;;;;18.29;49.39;99841.75;5054422;28;20433;-61
2022/12/12 05:33:36;;;;;;;5.63;4.10;;;;;;;18.24;49.76;99831.50;5052296;28;20210;-61
2022/12/12 05:36:01;;;;;;;5.30;4.13;;;;;;;18.29;49.51;99834.03;5054372;28;20284;-61
2022/12/12 05:38:27;;;;;;;6.20;3.93;;;;;;;18.35;49.28;99849.63;5052155;28;20164;-61
2022/12/12 05:40:52;;;;;;;5.90;4.30;;;;;;;18.30;49.72;99838.50;5039030;28;20650;-61
2022/12/12 05:43:18;;;;;;;8.53;4.70;;;;;;;18.28;49.74;99842.97;5071690;28;20615;-61
2022/12/12 05:45:43;;;;;;;7.00;4.33;;;;;;;18.33;49.57;99848.38;5071399;28;20190;-61
2022/12/12 05:48:09;;;;;;;6.10;4.40;;;;;;;18.36;49.51;99851.25;5071664;28;20175;-61
2022/12/12 05:50:34;;;;;;;5.60;4.00;;;;;;;18.34;49.34;99856.56;5064591;28;20194;-61
2022/12/12 05:52:59;;;;;;;5.37;3.93;;;;;;;18.29;49.49;99851.16;5051819;28;20195;-61
2022/12/12 05:55:25;;;;;;;6.40;4.53;;;;;;;18.33;49.63;99852.06;5051579;28;20175;-61
2022/12/12 05:57:50;;;;;;;5.70;4.17;;;;;;;18.33;49.32;99849.22;5071422;28;20178;-61
2022/12/12 06:00:16;;;;;;;7.00;4.40;;;;;;;18.37;49.41;99855.75;5060307;28;20183;-61
2022/12/12 06:02:41;;;;;;;5.70;4.30;;;;;;;18.30;49.59;99860.53;5069341;28;20182;-61
2022/12/12 06:05:07;;;;;;;5.30;3.97;;;;;;;18.28;49.79;99863.81;5070643;28;20209;-61
2022/12/12 06:07:32;;;;;;;5.10;4.27;;;;;;;18.32;49.57;99867.53;5071393;28;20163;-60
2022/12/12 06:09:58;;;;;;;6.53;4.87;;;;;;;18.27;49.61;99865.00;5068885;28;20215;-61
2022/12/12 06:12:23;;;;;;;7.03;4.40;;;;;;;18.33;49.70;99871.25;5051391;28;20199;-60
2022/12/12 06:14:49;;;;;;;7.50;4.43;;;;;;;18.35;49.56;99868.81;5066265;28;20183;-61
2022/12/12 06:17:14;;;;;;;5.77;4.47;;;;;;;18.33;49.50;99865.53;5071554;28;20183;-61
2022/12/12 06:19:40;;;;;;;6.60;4.90;;;;;;;18.30;49.72;99867.09;5070298;28;20248;-60
2022/12/12 06:22:05;;;;;;;7.93;4.40;;;;;;;18.34;49.50;99873.72;5053221;28;20163;-61
2022/12/12 06:24:31;;;;;;;6.70;4.37;;;;;;;18.31;49.64;99874.44;5071429;28;20650;-60
2022/12/12 06:26:56;;;;;;;6.73;4.50;;;;;;;18.36;49.31;99870.47;5070718;28;20518;-61
2022/12/12 06:29:21;;;;;;;4.97;3.60;;;;;;;18.32;49.77;99876.13;5060177;28;20779;-61
2022/12/12 06:31:47;;;;;;;5.47;4.43;;;;;;;18.30;49.95;99869.13;5050306;28;20156;-61
2022/12/12 06:34:13;;;;;;;5.30;3.80;;;;;;;18.33;49.54;99877.78;5032473;28;20286;-61
2022/12/12 06:36:38;;;;;;;5.00;3.93;;;;;;;18.22;49.98;99876.78;5062380;28;20277;-61
2022/12/12 06:39:03;;;;;;;4.73;4.07;;;;;;;18.27;49.68;99875.63;5052650;28;20163;-60
2022/12/12 06:41:30;;;;;;;6.73;4.37;;;;;;;18.34;49.87;99876.56;5071443;28;20527;-61
2022/12/12 06:43:55;;;;;;;4.40;4.00;;;;;;;18.36;49.55;99884.75;5053437;28;20887;-61
2022/12/12 06:46:22;;;;;;;6.33;4.33;;;;;;;18.31;49.50;99885.88;5054023;28;20458;-61
2022/12/12 06:48:48;;;;;;;6.20;4.50;;;;;;;18.33;49.84;99883.50;5051259;28;20184;-61
2022/12/12 06:51:15;;;;;;;5.40;4.30;;;;;;;18.36;49.81;99885.56;5064782;28;20447;-61
2022/12/12 06:53:40;;;;;;;6.87;4.30;;;;;;;18.29;49.91;99888.31;5070964;28;20211;-61
2022/12/12 06:56:07;;;;;;;5.73;4.20;;;;;;;18.33;49.50;99889.22;5066031;28;20441;-61
2022/12/12 06:58:32;;;;;;;6.13;3.97;;;;;;;18.33;49.68;99892.06;5055352;28;20219;-61
2022/12/12 07:00:58;;;;;;;5.60;4.10;;;;;;;18.36;49.55;99893.34;5071594;28;20409;-61
2022/12/12 07:03:23;;;;;;;6.67;4.87;;;;;;;18.39;49.33;99895.41;5070941;28;20530;-61
2022/12/12 07:05:49;;;;;;;8.83;4.30;;;;;;;18.34;49.71;99901.44;5068263;28;20586;-61
2022/12/12 07:08:14;;;;;;;5.00;4.27;;;;;;;18.35;49.43;99901.06;5071941;28;20631;-60
2022/12/12 07:10:40;;;;;;;5.73;4.03;;;;;;;18.33;49.50;99906.38;5071295;28;20717;-61
2022/12/12 07:13:05;;;;;;;4.40;3.60;;;;;;;18.31;49.77;99902.22;5070230;28;20199;-61
2022/12/12 07:15:31;;;;;;;5.10;4.00;;;;;;;18.30;49.51;99895.66;5055327;28;20195;-61
2022/12/12 07:17:56;;;;;;;5.30;4.20;;;;;;;18.33;49.77;99905.53;5066984;28;20191;-61
2022/12/12 07:20:22;;;;;;;6.03;4.20;;;;;;;18.34;49.63;99890.84;5061019;28;20237;-61
2022/12/12 07:22:47;;;;;;;5.73;4.20;;;;;;;18.37;49.49;99892.13;5050714;28;20172;-61
2022/12/12 07:25:13;;;;;;;6.17;4.40;;;;;;;18.29;49.53;99888.31;5032523;28;20195;-61
2022/12/12 07:27:38;;;;;;;6.30;3.90;;;;;;;18.33;49.63;99891.25;5070219;28;20218;-61
2022/12/12 07:30:04;;;;;;;5.27;4.23;;;;;;;18.30;49.58;99889.94;5070304;28;20168;-61
2022/12/12 07:32:29;;;;;;;5.70;4.10;;;;;;;18.34;49.68;99895.75;5070934;28;20202;-61
2022/12/12 07:34:55;;;;;;;5.70;3.80;;;;;;;18.35;49.49;99903.09;5068597;28;20198;-61
2022/12/12 07:37:20;;;;;;;5.60;4.30;;;;;;;18.36;49.51;99907.63;5050606;28;20160;-61
2022/12/12 07:39:46;;;;;;;6.07;4.10;;;;;;;18.34;49.93;99908.00;5050652;28;20179;-61
2022/12/12 07:42:11;;;;;;;6.33;4.03;;;;;;;18.37;49.38;99912.91;5053709;28;20505;-61
2022/12/12 07:44:37;;;;;;;5.40;4.27;;;;;;;18.35;49.67;99906.78;5053135;28;20164;-61
2022/12/12 07:47:02;;;;;;;4.40;3.70;;;;;;;18.33;49.74;99909.22;5056671;28;20233;-61
2022/12/12 07:49:28;;;;;;;5.07;3.40;;;;;;;18.35;49.43;99908.81;5065828;28;20179;-61
2022/12/12 07:51:53;;;;;;;6.53;4.03;;;;;;;18.31;49.79;99916.50;5075591;28;20191;-61
2022/12/12 07:54:19;;;;;;;6.47;4.60;;;;;;;18.33;49.50;99917.78;5075274;28;20195;-61
2022/12/12 07:56:45;;;;;;;6.00;3.80;;;;;;;18.35;49.45;99921.06;5054654;28;20186;-61
2022/12/12 07:59:10;;;;;;;5.47;4.10;;;;;;;18.34;49.76;99930.03;5056364;28;20643;-61
2022/12/12 08:01:36;;;;;;;5.53;4.00;;;;;;;18.34;49.46;99925.16;5073755;28;20163;-61
2022/12/12 08:04:03;;;;;;;6.03;3.60;;;;;;;18.33;49.76;99934.94;5073962;28;20206;-61
2022/12/12 08:06:28;;;;;;;5.40;4.00;;;;;;;18.36;49.93;99936.19;5067871;28;20867;-61
2022/12/12 08:08:54;;;;;;;5.60;3.80;;;;;;;18.41;49.52;99933.81;5073895;28;20175;-61
2022/12/12 08:11:20;;;;;;;5.13;3.70;;;;;;;18.35;49.50;99943.09;5065661;28;20555;-61
2022/12/12 08:13:46;;;;;;;6.27;3.87;;;;;;;18.40;49.70;99940.75;5052415;28;20636;-61
2022/12/12 08:16:22;;;;;;;4.50;3.33;;;;;;;18.35;49.59;99943.94;5066415;28;20417;-61
2022/12/12 08:18:48;;;;;;;6.30;4.10;;;;;;;18.33;49.76;99949.22;5072302;28;20171;-61
2022/12/12 08:21:14;;;;;;;4.80;3.70;;;;;;;18.32;49.99;99943.88;5069160;28;20452;-61
2022/12/12 08:23:40;;;;;;;5.10;3.50;;;;;;;18.33;49.66;99949.22;5072383;28;20167;-61
2022/12/12 08:26:07;;;;;;;4.43;3.50;;;;;;;18.39;49.50;99953.38;5068747;28;20210;-61
2022/12/12 08:28:33;;;;;;;5.33;3.90;;;;;;;18.38;49.74;99960.31;5071290;28;20183;-61
2022/12/12 08:30:58;;;;;;;5.30;3.77;;;;;;;18.37;49.66;99960.69;5073303;28;20432;-61
2022/12/12 08:33:24;;;;;;;4.50;3.40;;;;;;;18.35;49.36;99958.22;5073178;28;20198;-61
2022/12/12 08:35:49;;;;;;;5.33;3.43;;;;;;;18.32;49.77;99958.16;5063605;28;20202;-61
2022/12/12 08:38:15;;;;;;;6.13;4.03;;;;;;;18.33;49.75;99960.66;5052977;28;20646;-61
2022/12/12 08:40:40;;;;;;;4.70;3.50;;;;;;;18.37;49.65;99963.56;5053818;28;20190;-61
2022/12/12 08:43:07;;;;;;;5.10;3.70;;;;;;;18.34;49.76;99958.63;5073053;28;20194;-60
2022/12/12 08:45:32;;;;;;;5.00;3.83;;;;;;;18.39;49.74;99958.28;5072842;28;20676;-61
2022/12/12 08:47:58;;;;;;;5.90;4.03;;;;;;;18.34;49.48;99956.59;5073035;28;20410;-60
2022/12/12 08:50:23;;;;;;;5.93;3.90;;;;;;;18.35;49.54;99961.09;5066907;28;20183;-61
2022/12/12 08:52:49;;;;;;;5.13;3.90;;;;;;;18.38;49.66;99971.75;5070053;28;20225;-61
2022/12/12 08:55:14;;;;;;;4.33;3.70;;;;;;;18.30;49.70;99969.97;5070604;28;20175;-61
2022/12/12 08:57:40;;;;;;;5.20;3.70;;;;;;;18.36;49.51;99977.00;5071323;28;20202;-61
2022/12/12 09:00:06;;;;;;;4.80;3.27;;;;;;;18.32;49.57;99976.13;5072661;28;20186;-61
2022/12/12 09:02:31;;;;;;;6.00;4.43;;;;;;;18.34;49.80;99981.47;5055603;28;20218;-61
2022/12/12 09:04:56;;;;;;;5.47;4.23;;;;;;;18.31;49.88;99983.03;5065206;28;20480;-61
2022/12/12 09:07:22;;;;;;;5.50;3.67;;;;;;;18.36;49.72;99985.59;5072412;28;20163;-61
2022/12/12 09:09:47;;;;;;;4.90;3.83;;;;;;;18.38;49.60;99985.22;5069746;28;20199;-61
2022/12/12 09:12:13;;;;;;;4.40;3.20;;;;;;;18.33;49.59;99991.25;5071586;28;20673;-61
2022/12/12 09:14:38;;;;;;;5.43;3.73;;;;;;;18.37;49.55;99995.00;5072378;28;20189;-61
2022/12/12 09:17:04;;;;;;;5.30;3.97;;;;;;;18.35;49.53;99989.66;5068760;28;20232;-61
2022/12/12 09:19:29;;;;;;;5.53;3.87;;;;;;;18.35;49.57;99983.94;5072351;28;20184;-61
2022/12/12 09:21:55;;;;;;;5.10;3.77;;;;;;;18.29;49.84;99993.22;5069932;28;20182;-61
2022/12/12 09:24:22;;;;;;;5.27;3.80;;;;;;;18.34;49.49;99990.88;5071885;28;20166;-61
2022/12/12 09:26:48;;;;;;;6.53;4.13;;;;;;;18.33;49.61;99994.97;5072039;28;20183;-61
2022/12/12 09:29:13;;;;;;;4.50;3.43;;;;;;;18.33;49.83;99991.25;5071972;28;20440;-61
2022/12/12 09:31:39;;;;;;;5.30;3.80;;;;;;;18.28;49.87;99994.44;5064216;28;20263;-60
2022/12/12 09:34:04;;;;;;;4.53;3.60;;;;;;;18.33;49.97;99997.81;5052034;28;20195;-61
2022/12/12 09:36:30;;;;;;;4.40;3.77;;;;;;;18.35;49.49;100003.94;5053097;28;20179;-61
2022/12/12 09:38:55;;;;;;;5.13;3.83;;;;;;;18.38;49.76;100006.06;5053149;28;20183;-61
2022/12/12 09:41:25;;;;;;;5.83;3.43;;;;;;;18.35;49.84;100012.53;5051830;28;20494;-61
2022/12/12 09:44:07;;;;;;;4.90;3.50;;;;;;;18.31;49.98;100011.63;5037219;28;20171;-61
2022/12/12 09:46:39;;;;;;;5.30;3.80;;;;;;;18.39;49.20;100013.41;5033689;28;20456;-61
2022/12/12 09:49:15;;;;;;;4.40;3.37;;;;;;;18.36;49.58;100008.44;5036565;28;20437;-61
2022/12/12 09:51:42;;;;;;;4.90;4.10;;;;;;;18.36;49.61;100001.94;5051611;28;20501;-61
2022/12/12 09:54:11;;;;;;;5.37;3.80;;;;;;;18.37;49.73;99998.66;5033482;28;20423;-61
2022/12/12 09:56:44;;;;;;;4.57;3.30;;;;;;;18.36;49.76;99997.03;5062705;28;20429;-61
2022/12/12 09:59:14;;;;;;;5.30;3.83;;;;;;;18.37;49.63;99995.81;5069597;28;20461;-61
2022/12/12 10:02:04;;;;;;;4.80;3.37;;;;;;;18.35;49.75;99991.69;5024311;28;20856;-61
2022/12/12 10:04:58;;;;;;;4.87;3.73;;;;;;;18.35;49.76;100001.09;5033685;28;20446;-61
2022/12/12 10:07:41;;;;;;;5.27;3.77;;;;;;;18.38;49.96;99993.78;5024099;28;20796;-61
2022/12/12 10:10:35;;;;;;;5.90;4.07;;;;;;;18.37;49.52;99987.22;5051511;28;20842;-61
2022/12/12 10:13:01;;;;;;;5.03;3.70;;;;;;;18.39;49.39;99987.69;5028314;28;20989;-61
2022/12/12 10:15:37;;;;;;;5.07;3.80;;;;;;;18.39;49.38;99979.13;5027287;28;20818;-61
2022/12/12 10:18:06;;;;;;;5.00;3.67;;;;;;;18.35;49.80;99980.25;5049783;28;20455;-61
2022/12/12 10:20:33;;;;;;;4.40;3.37;;;;;;;18.37;49.60;99975.78;5029235;28;20446;-61
2022/12/12 10:23:00;;;;;;;5.33;3.50;;;;;;;18.37;49.44;99987.22;5031219;28;20438;-61
2022/12/12 10:25:58;;;;;;;5.67;3.93;;;;;;;18.40;49.78;99985.63;5038660;28;20449;-61
2022/12/12 10:28:25;;;;;;;5.23;3.83;;;;;;;18.36;49.84;99985.59;5007272;28;20441;-61
2022/12/12 10:30:58;;;;;;;3.87;3.00;;;;;;;18.36;50.21;99985.59;5049725;28;20479;-61
2022/12/12 10:33:43;;;;;;;6.33;3.70;;;;;;;18.37;49.69;99986.44;5013161;28;21023;-61
2022/12/12 10:36:11;;;;;;;5.17;3.57;;;;;;;18.40;49.64;99989.31;5013104;28;20426;-61
2022/12/12 10:38:58;;;;;;;6.00;3.97;;;;;;;18.38;49.70;99982.34;5016958;28;20425;-61
2022/12/12 10:41:27;;;;;;;5.27;3.93;;;;;;;18.36;49.66;99979.88;5030838;28;20412;-61
2022/12/12 10:44:02;;;;;;;5.07;3.67;;;;;;;18.37;49.67;99987.22;5041757;28;20537;-61
2022/12/12 10:46:31;;;;;;;5.03;3.73;;;;;;;18.35;49.53;99986.81;5033525;28;20406;-61
2022/12/12 10:48:56;;;;;;;5.13;3.50;;;;;;;18.37;49.79;99975.00;5031636;28;20542;-61
2022/12/12 10:51:22;;;;;;;4.17;3.30;;;;;;;18.44;49.74;99967.34;5033384;28;20406;-61
2022/12/12 10:53:48;;;;;;;4.17;3.03;;;;;;;18.44;49.66;99964.47;5016731;28;20208;-61
2022/12/12 10:56:22;;;;;;;4.80;3.23;;;;;;;18.39;49.55;99956.25;5024506;28;20507;-61
2022/12/12 10:58:55;;;;;;;5.33;3.33;;;;;;;18.40;49.56;99960.75;5050757;28;20234;-61
2022/12/12 11:01:29;;;;;;;4.40;3.37;;;;;;;18.39;49.41;99964.81;5045914;28;20441;-61
2022/12/12 11:03:56;;;;;;;5.23;3.50;;;;;;;18.42;49.56;99966.88;5034031;28;20398;-61
2022/12/12 11:06:38;;;;;;;5.60;3.90;;;;;;;18.41;49.70;99959.53;5048757;28;20441;-61
2022/12/12 11:09:28;;;;;;;5.40;3.70;;;;;;;18.43;49.95;99957.13;5033058;28;20422;-61
2022/12/12 11:12:03;;;;;;;4.70;3.60;;;;;;;18.42;49.55;99961.16;5049989;28;20435;-61
2022/12/12 11:15:03;;;;;;;5.00;3.40;;;;;;;18.46;49.58;99950.59;5049728;28;20528;-61
2022/12/12 11:17:29;;;;;;;4.77;3.37;;;;;;;18.51;49.31;99960.91;5014380;28;20451;-61
2022/12/12 11:19:59;;;;;;;5.00;3.53;;;;;;;18.41;49.40;99958.72;5052772;28;20509;-61
2022/12/12 11:22:25;;;;;;;3.90;2.93;;;;;;;18.45;49.49;99957.53;5048219;28;20438;-61
2022/12/12 11:24:50;;;;;;;4.80;3.60;;;;;;;18.48;49.72;99947.38;5033449;28;20423;-61
2022/12/12 11:27:27;;;;;;;4.80;3.40;;;;;;;18.42;49.78;99949.72;5048158;28;20179;-61
2022/12/12 11:29:54;;;;;;;4.60;3.60;;;;;;;18.48;49.54;99941.66;5034691;28;20189;-61
2022/12/12 11:32:22;;;;;;;4.80;3.40;;;;;;;18.48;49.47;99945.34;5019940;28;20559;-61
2022/12/12 11:35:21;;;;;;;5.13;3.20;;;;;;;18.46;49.58;99949.81;5047140;28;20472;-61
2022/12/12 11:37:47;;;;;;;6.10;3.93;;;;;;;18.46;49.46;99949.81;5049126;28;20542;-61
2022/12/12 11:40:29;;;;;;;4.80;3.80;;;;;;;18.47;49.48;99949.38;5054502;28;20440;-61
2022/12/12 11:43:09;;;;;;;5.43;3.93;;;;;;;18.47;49.75;99946.53;5052161;28;20430;-61
2022/12/12 11:45:35;;;;;;;5.37;3.60;;;;;;;18.47;49.54;99948.59;5034202;28;20418;-61
2022/12/12 11:48:00;;;;;;;4.20;3.20;;;;;;;18.43;49.74;99939.97;5034080;28;20395;-61
2022/12/12 11:50:27;;;;;;;5.40;3.90;;;;;;;18.46;49.75;99933.47;5018738;28;20191;-61